createdAt,value
2023-03-26T00:02:14.064Z,11.06
2023-03-26T00:05:02.296Z,11.06
2023-03-26T00:07:49.137Z,11.05
2023-03-26T00:10:37.830Z,11.02
2023-03-26T00:13:24.662Z,11.02
2023-03-26T00:16:13.831Z,11.00
2023-03-26T00:19:02.042Z,11.00
2023-03-26T00:21:48.926Z,10.97
2023-03-26T00:24:37.382Z,10.96
2023-03-26T00:27:25.469Z,10.94
2023-03-26T00:30:12.516Z,10.93
2023-03-26T00:32:59.446Z,10.90
2023-03-26T00:35:47.387Z,10.89
2023-03-26T00:38:38.722Z,10.88
2023-03-26T00:41:26.948Z,10.85
2023-03-26T00:44:14.002Z,10.85
2023-03-26T00:47:00.954Z,10.83
2023-03-26T00:49:48.790Z,10.81
2023-03-26T00:52:36.184Z,10.79
2023-03-26T00:55:23.436Z,10.76
2023-03-26T00:58:10.940Z,10.74
2023-03-26T01:00:59.715Z,10.72
2023-03-26T01:04:00.848Z,10.70
2023-03-26T01:06:55.562Z,10.67
2023-03-26T01:09:50.236Z,10.66
2023-03-26T01:12:37.160Z,10.64
2023-03-26T01:15:29.826Z,10.63
2023-03-26T01:18:26.331Z,10.60
2023-03-26T01:21:14.540Z,10.60
2023-03-26T01:24:02.878Z,10.58
2023-03-26T01:27:04.413Z,10.54
2023-03-26T01:30:07.364Z,10.51
2023-03-26T01:33:14.578Z,10.48
2023-03-26T01:36:06.502Z,10.48
2023-03-26T01:39:07.999Z,10.46
2023-03-26T01:41:58.483Z,10.44
2023-03-26T01:44:55.874Z,10.44
2023-03-26T01:47:44.204Z,10.42
2023-03-26T01:50:31.340Z,10.40
2023-03-26T01:53:18.451Z,10.39
2023-03-26T01:56:23.230Z,10.38
2023-03-26T01:59:41.325Z,10.35
2023-03-26T02:03:06.115Z,10.34
2023-03-26T02:05:58.406Z,10.33
2023-03-26T02:08:54.194Z,10.29
2023-03-26T02:11:41.661Z,10.27
2023-03-26T02:14:30.339Z,10.26
2023-03-26T02:17:19.125Z,10.24
2023-03-26T02:20:12.299Z,10.24
2023-03-26T02:22:59.913Z,10.19
2023-03-26T02:25:47.381Z,10.21
2023-03-26T02:28:34.960Z,10.20
2023-03-26T02:31:26.293Z,10.17
2023-03-26T02:34:13.317Z,10.16
2023-03-26T02:37:00.873Z,10.13
2023-03-26T02:39:47.721Z,10.13
2023-03-26T02:42:34.531Z,10.12
2023-03-26T02:45:22.110Z,10.12
2023-03-26T02:48:08.958Z,10.10
2023-03-26T02:50:55.848Z,10.08
2023-03-26T02:53:42.732Z,10.08
2023-03-26T02:56:29.814Z,10.07
2023-03-26T02:59:16.933Z,10.07
2023-03-26T03:02:04.059Z,10.06
2023-03-26T03:04:51.991Z,10.06
2023-03-26T03:07:39.052Z,10.05
2023-03-26T03:10:27.617Z,10.03
2023-03-26T03:13:15.009Z,10.01
2023-03-26T03:16:01.896Z,9.99
2023-03-26T03:18:54.583Z,9.99
2023-03-26T03:21:42.023Z,9.97
2023-03-26T03:24:28.987Z,9.94
2023-03-26T03:27:16.095Z,9.93
2023-03-26T03:30:03.083Z,9.93
2023-03-26T03:32:49.937Z,9.91
2023-03-26T03:35:38.356Z,9.90
2023-03-26T03:38:25.275Z,9.91
2023-03-26T03:41:12.398Z,9.89
2023-03-26T03:44:01.498Z,9.88
2023-03-26T03:46:49.285Z,9.88
2023-03-26T03:49:36.130Z,9.88
2023-03-26T03:52:23.056Z,9.84
2023-03-26T03:55:10.630Z,9.82
2023-03-26T03:57:59.920Z,9.82
2023-03-26T04:00:48.693Z,9.80
2023-03-26T04:03:38.808Z,9.76
2023-03-26T04:06:26.125Z,9.78
2023-03-26T04:09:12.981Z,9.78
2023-03-26T04:11:59.891Z,9.75
2023-03-26T04:14:46.804Z,9.74
2023-03-26T04:17:33.820Z,9.71
2023-03-26T04:20:20.956Z,9.71
2023-03-26T04:23:08.412Z,9.68
2023-03-26T04:25:56.220Z,9.65
2023-03-26T04:28:46.510Z,9.64
2023-03-26T04:31:34.185Z,9.64
2023-03-26T04:34:24.205Z,9.61
2023-03-26T04:37:18.987Z,9.57
2023-03-26T04:40:30.595Z,9.57
2023-03-26T04:43:18.160Z,9.55
2023-03-26T04:46:05.298Z,9.52
2023-03-26T04:48:53.050Z,9.51
2023-03-26T04:51:42.034Z,9.51
2023-03-26T04:54:28.929Z,9.48
2023-03-26T04:57:23.806Z,9.47
2023-03-26T05:00:18.897Z,9.46
2023-03-26T05:03:06.260Z,9.44
2023-03-26T05:05:53.441Z,9.44
2023-03-26T05:08:41.809Z,9.42
2023-03-26T05:11:28.792Z,9.40
2023-03-26T05:14:15.703Z,9.37
2023-03-26T05:17:05.938Z,9.36
2023-03-26T05:19:52.860Z,9.34
2023-03-26T05:22:39.694Z,9.34
2023-03-26T05:25:26.550Z,9.33
2023-03-26T05:28:13.458Z,9.33
2023-03-26T05:31:01.283Z,9.30
2023-03-26T05:33:48.639Z,9.31
2023-03-26T05:36:35.570Z,9.29
2023-03-26T05:39:26.210Z,9.28
2023-03-26T05:42:13.161Z,9.27
2023-03-26T05:45:00.007Z,9.27
2023-03-26T05:47:47.817Z,9.25
2023-03-26T05:50:34.707Z,9.24
2023-03-26T05:53:22.463Z,9.22
2023-03-26T05:56:10.604Z,9.21
2023-03-26T05:58:57.717Z,9.22
2023-03-26T06:01:44.782Z,9.20
2023-03-26T06:04:32.464Z,9.20
2023-03-26T06:07:19.994Z,9.16
2023-03-26T06:10:07.331Z,9.16
2023-03-26T06:12:54.193Z,9.11
2023-03-26T06:15:41.191Z,9.09
2023-03-26T06:18:28.339Z,9.07
2023-03-26T06:21:15.457Z,9.05
2023-03-26T06:24:02.323Z,9.05
2023-03-26T06:26:49.195Z,9.05
2023-03-26T06:29:36.164Z,9.05
2023-03-26T06:32:23.170Z,9.04
2023-03-26T06:35:11.171Z,9.06
2023-03-26T06:37:58.522Z,9.04
2023-03-26T06:40:45.448Z,9.03
2023-03-26T06:43:36.213Z,9.06
2023-03-26T06:46:23.567Z,9.08
2023-03-26T06:49:10.405Z,9.10
2023-03-26T06:51:57.835Z,9.14
2023-03-26T06:54:44.687Z,9.16
2023-03-26T06:57:31.515Z,9.20
2023-03-26T07:00:19.700Z,9.23
2023-03-26T07:03:06.666Z,9.23
2023-03-26T07:05:53.519Z,9.25
2023-03-26T07:08:40.359Z,9.26
2023-03-26T07:11:27.276Z,9.28
2023-03-26T07:14:14.162Z,9.28
2023-03-26T07:17:01.213Z,9.27
2023-03-26T07:19:48.122Z,9.26
2023-03-26T07:22:35.742Z,9.26
2023-03-26T07:25:22.844Z,9.24
2023-03-26T07:28:37.295Z,9.25
2023-03-26T07:31:48.306Z,9.24
2023-03-26T07:34:46.437Z,9.25
2023-03-26T07:38:01.839Z,9.23
2023-03-26T07:41:06.918Z,9.22
2023-03-26T07:44:18.561Z,9.23
2023-03-26T07:47:16.149Z,9.21
2023-03-26T07:50:04.074Z,9.23
2023-03-26T07:52:51.133Z,9.22
2023-03-26T07:55:51.114Z,9.22
2023-03-26T07:58:46.964Z,9.23
2023-03-26T08:01:49.565Z,9.24
2023-03-26T08:04:48.065Z,9.23
2023-03-26T08:07:39.425Z,9.25
2023-03-26T08:10:27.993Z,9.26
2023-03-26T08:13:41.638Z,9.27
2023-03-26T08:16:40.170Z,9.27
2023-03-26T08:19:33.174Z,9.27
2023-03-26T08:22:28.759Z,9.28
2023-03-26T08:25:17.731Z,9.29
2023-03-26T08:28:37.885Z,9.30
2023-03-26T08:31:33.689Z,9.30
2023-03-26T08:34:20.550Z,9.30
2023-03-26T08:37:07.804Z,9.31
2023-03-26T08:39:54.712Z,9.32
2023-03-26T08:42:56.032Z,9.32
2023-03-26T08:46:12.040Z,9.33
2023-03-26T08:49:15.857Z,9.34
2023-03-26T08:52:31.086Z,9.35
2023-03-26T08:55:33.070Z,9.35
2023-03-26T08:58:34.595Z,9.36
2023-03-26T09:01:30.753Z,9.36
2023-03-26T09:04:20.364Z,9.37
2023-03-26T09:07:21.405Z,9.37
2023-03-26T09:10:35.648Z,9.37
2023-03-26T09:13:54.589Z,9.38
2023-03-26T09:17:09.911Z,9.38
2023-03-26T09:20:24.251Z,9.37
2023-03-26T09:23:33.023Z,9.37
2023-03-26T09:27:05.500Z,9.37
2023-03-26T09:30:20.050Z,9.38
2023-03-26T09:33:32.890Z,9.37
2023-03-26T09:36:22.488Z,9.39
2023-03-26T09:39:27.924Z,9.40
2023-03-26T09:42:37.250Z,9.42
2023-03-26T09:45:46.115Z,9.43
2023-03-26T09:48:42.567Z,9.43
2023-03-26T09:51:44.641Z,9.44
2023-03-26T09:55:02.222Z,9.45
2023-03-26T09:57:58.385Z,9.45
2023-03-26T10:01:03.868Z,9.47
2023-03-26T10:03:53.779Z,9.47
2023-03-26T10:06:47.114Z,9.49
2023-03-26T10:09:43.803Z,9.49
2023-03-26T10:12:36.635Z,9.49
2023-03-26T10:15:43.372Z,9.50
2023-03-26T10:18:42.280Z,9.51
2023-03-26T10:21:42.875Z,9.53
2023-03-26T10:24:38.696Z,9.53
2023-03-26T10:27:37.680Z,9.54
2023-03-26T10:30:48.916Z,9.56
2023-03-26T10:33:59.957Z,9.57
2023-03-26T10:37:22.258Z,9.58
2023-03-26T10:40:14.477Z,9.57
2023-03-26T10:43:29.597Z,9.59
2023-03-26T10:46:53.913Z,9.58
2023-03-26T10:49:40.693Z,9.59
2023-03-26T10:52:34.643Z,9.61
2023-03-26T10:55:30.674Z,9.61
2023-03-26T10:58:27.415Z,9.61
2023-03-26T11:01:42.836Z,9.62
2023-03-26T11:04:38.645Z,9.62
2023-03-26T11:08:05.366Z,9.62
2023-03-26T11:11:01.533Z,9.63
2023-03-26T11:13:54.408Z,9.62
2023-03-26T11:16:59.769Z,9.49
2023-03-26T11:20:02.775Z,9.43
2023-03-26T11:23:23.557Z,9.52
2023-03-26T11:26:13.689Z,9.62
2023-03-26T11:29:31.712Z,9.70
2023-03-26T11:32:24.655Z,9.73
2023-03-26T11:35:40.368Z,9.75
2023-03-26T11:38:37.555Z,9.75
2023-03-26T11:41:27.108Z,9.74
2023-03-26T11:44:29.831Z,9.72
2023-03-26T11:47:23.237Z,9.71
2023-03-26T11:50:16.726Z,9.72
2023-03-26T11:53:12.699Z,9.72
2023-03-26T11:56:04.186Z,9.71
2023-03-26T11:59:01.067Z,9.72
2023-03-26T12:01:51.818Z,9.71
2023-03-26T12:04:41.087Z,9.72
2023-03-26T12:07:35.037Z,9.72
2023-03-26T12:10:31.610Z,9.72
2023-03-26T12:13:28.298Z,9.72
2023-03-26T12:16:18.805Z,9.72
2023-03-26T12:19:18.807Z,9.73
2023-03-26T12:22:06.630Z,9.71
2023-03-26T12:25:21.309Z,9.72
2023-03-26T12:28:14.089Z,9.72
2023-03-26T12:31:02.898Z,9.73
2023-03-26T12:34:16.755Z,9.73
2023-03-26T12:37:05.543Z,9.73
2023-03-26T12:40:12.238Z,9.73
2023-03-26T12:44:48.504Z,9.73
2023-03-26T12:47:56.875Z,9.74
2023-03-26T12:49:39.465Z,9.74
2023-03-26T12:52:48.144Z,9.74
2023-03-26T12:55:42.846Z,9.75
2023-03-26T12:58:58.416Z,9.74
2023-03-26T13:02:08.420Z,9.74
2023-03-26T13:05:05.723Z,9.75
2023-03-26T13:08:18.383Z,9.74
2023-03-26T13:11:28.361Z,9.74
2023-03-26T13:14:18.064Z,9.72
2023-03-26T13:17:21.770Z,9.73
2023-03-26T13:20:27.506Z,9.73
2023-03-26T13:23:23.151Z,9.74
2023-03-26T13:26:19.645Z,9.74
2023-03-26T13:29:28.055Z,9.75
2023-03-26T13:32:24.234Z,9.80
2023-03-26T13:35:45.175Z,9.80
2023-03-26T13:38:43.774Z,9.79
2023-03-26T13:42:04.716Z,9.84
2023-03-26T13:45:24.766Z,9.88
2023-03-26T13:48:19.333Z,9.93
2023-03-26T13:51:19.743Z,9.96
2023-03-26T13:54:15.761Z,9.99
2023-03-26T13:57:10.159Z,10.02
2023-03-26T14:00:02.428Z,10.03
2023-03-26T14:02:56.333Z,10.04
2023-03-26T14:05:47.436Z,10.04
2023-03-26T14:08:41.874Z,10.04
2023-03-26T14:11:40.816Z,10.04
2023-03-26T14:14:43.495Z,10.04
2023-03-26T14:17:34.536Z,10.04
2023-03-26T14:20:50.049Z,10.05
2023-03-26T14:23:49.020Z,10.04
2023-03-26T14:26:54.944Z,10.06
2023-03-26T14:30:03.911Z,10.07
2023-03-26T14:32:50.802Z,10.07
2023-03-26T14:35:54.867Z,10.08
2023-03-26T14:39:01.303Z,10.10
2023-03-26T14:41:51.758Z,10.12
2023-03-26T14:45:12.699Z,10.13
2023-03-26T14:48:36.721Z,10.13
2023-03-26T14:51:44.573Z,10.15
2023-03-26T14:54:34.062Z,10.15
2023-03-26T14:57:49.490Z,10.16
2023-03-26T15:01:06.763Z,10.18
2023-03-26T15:04:24.842Z,10.20
2023-03-26T15:07:37.177Z,10.22
2023-03-26T15:10:36.294Z,10.23
2023-03-26T15:13:23.034Z,10.23
2023-03-26T15:16:55.097Z,10.27
2023-03-26T15:20:13.074Z,10.27
2023-03-26T15:23:24.130Z,10.29
2023-03-26T15:26:30.589Z,10.33
2023-03-26T15:29:56.782Z,10.35
2023-03-26T15:32:57.158Z,10.38
2023-03-26T15:35:59.218Z,10.37
2023-03-26T15:39:06.599Z,10.39
2023-03-26T15:41:56.320Z,10.39
2023-03-26T15:44:53.999Z,10.39
2023-03-26T15:47:51.368Z,10.41
2023-03-26T15:51:03.202Z,10.42
2023-03-26T15:53:57.870Z,10.42
2023-03-26T15:57:07.217Z,10.41
2023-03-26T16:00:32.333Z,10.43
2023-03-26T16:03:25.520Z,10.43
2023-03-26T16:06:20.579Z,10.43
2023-03-26T16:09:32.503Z,10.44
2023-03-26T16:13:00.440Z,10.46
2023-03-26T16:16:02.547Z,10.45
2023-03-26T16:19:05.785Z,10.44
2023-03-26T16:21:57.699Z,10.46
2023-03-26T16:24:47.696Z,10.46
2023-03-26T16:27:35.264Z,10.48
2023-03-26T16:30:31.900Z,10.50
2023-03-26T16:33:21.179Z,10.52
2023-03-26T16:36:18.426Z,10.55
2023-03-26T16:39:05.578Z,10.57
2023-03-26T16:42:06.325Z,10.59
2023-03-26T16:45:06.833Z,10.60
2023-03-26T16:48:15.693Z,10.60
2023-03-26T16:51:24.029Z,10.60
2023-03-26T16:54:28.067Z,10.61
2023-03-26T16:57:29.326Z,10.59
2023-03-26T17:00:27.761Z,10.59
2023-03-26T17:03:24.294Z,10.59
2023-03-26T17:06:25.505Z,10.61
2023-03-26T17:09:41.394Z,10.62
2023-03-26T17:12:34.555Z,10.62
2023-03-26T17:15:29.040Z,10.63
2023-03-26T17:18:25.698Z,10.63
2023-03-26T17:21:17.219Z,10.63
2023-03-26T17:24:22.256Z,10.62
2023-03-26T17:27:28.222Z,10.63
2023-03-26T17:30:39.898Z,10.60
2023-03-26T17:33:26.880Z,10.59
2023-03-26T17:36:20.103Z,10.57
2023-03-26T17:39:51.471Z,10.57
2023-03-26T17:42:38.394Z,10.55
2023-03-26T17:45:30.470Z,10.54
2023-03-26T17:48:21.654Z,10.54
2023-03-26T17:51:20.744Z,10.54
2023-03-26T17:54:15.300Z,10.52
2023-03-26T17:57:18.879Z,10.51
2023-03-26T18:00:10.532Z,10.51
2023-03-26T18:03:01.409Z,10.51
2023-03-26T18:05:55.550Z,10.50
2023-03-26T18:09:31.485Z,10.50
2023-03-26T18:12:38.466Z,10.46
2023-03-26T18:15:45.024Z,10.46
2023-03-26T18:18:58.903Z,10.44
2023-03-26T18:21:51.192Z,10.41
2023-03-26T18:24:39.484Z,10.41
2023-03-26T18:27:33.541Z,10.41
2023-03-26T18:30:23.433Z,10.40
2023-03-26T18:33:15.555Z,10.39
2023-03-26T18:36:03.725Z,10.39
2023-03-26T18:38:50.603Z,10.39
2023-03-26T18:41:39.382Z,10.39
2023-03-26T18:44:27.009Z,10.39
2023-03-26T18:47:15.160Z,10.39
2023-03-26T18:50:02.360Z,10.38
2023-03-26T18:52:49.264Z,10.36
2023-03-26T18:55:39.545Z,10.38
2023-03-26T18:58:34.535Z,10.36
2023-03-26T19:01:25.842Z,10.37
2023-03-26T19:04:13.239Z,10.38
2023-03-26T19:07:01.613Z,10.36
2023-03-26T19:09:48.717Z,10.35
2023-03-26T19:12:37.373Z,10.35
2023-03-26T19:15:26.535Z,10.32
2023-03-26T19:18:18.237Z,10.34
2023-03-26T19:21:05.472Z,10.33
2023-03-26T19:23:52.768Z,10.31
2023-03-26T19:26:39.851Z,10.30
2023-03-26T19:29:32.165Z,10.31
2023-03-26T19:32:21.988Z,10.31
2023-03-26T19:35:19.962Z,10.31
2023-03-26T19:38:27.948Z,10.30
2023-03-26T19:41:24.301Z,10.30
2023-03-26T19:44:25.790Z,10.29
2023-03-26T19:47:39.012Z,10.28
2023-03-26T19:50:33.590Z,10.28
2023-03-26T19:53:25.530Z,10.28
2023-03-26T19:56:14.604Z,10.26
2023-03-26T19:59:02.312Z,10.27
2023-03-26T20:01:49.240Z,10.26
2023-03-26T20:04:36.116Z,10.25
2023-03-26T20:07:34.985Z,10.25
2023-03-26T20:10:23.871Z,10.21
2023-03-26T20:13:19.781Z,10.19
2023-03-26T20:16:27.656Z,10.16
2023-03-26T20:19:15.359Z,10.15
2023-03-26T20:22:02.490Z,10.16
2023-03-26T20:24:50.766Z,10.15
2023-03-26T20:27:37.580Z,10.12
2023-03-26T20:30:36.801Z,10.11
2023-03-26T20:33:25.817Z,10.09
2023-03-26T20:36:13.690Z,10.09
2023-03-26T20:39:00.832Z,10.08
2023-03-26T20:41:49.954Z,10.07
2023-03-26T20:44:36.970Z,10.05
2023-03-26T20:47:24.187Z,10.03
2023-03-26T20:50:14.072Z,10.03
2023-03-26T20:53:02.436Z,10.02
2023-03-26T20:55:51.625Z,10.02
2023-03-26T20:58:40.016Z,10.00
2023-03-26T21:01:27.759Z,10.00
2023-03-26T21:04:16.184Z,9.99
2023-03-26T21:07:15.067Z,9.96
2023-03-26T21:10:05.453Z,9.94
2023-03-26T21:13:12.872Z,9.94
2023-03-26T21:16:00.991Z,9.93
2023-03-26T21:18:48.667Z,9.91
2023-03-26T21:21:59.134Z,9.89
2023-03-26T21:25:08.272Z,9.86
2023-03-26T21:28:01.337Z,9.86
2023-03-26T21:30:48.421Z,9.84
2023-03-26T21:33:35.223Z,9.86
2023-03-26T21:36:23.076Z,9.85
2023-03-26T21:39:11.134Z,9.85
2023-03-26T21:42:05.291Z,9.84
2023-03-26T21:44:52.834Z,9.84
2023-03-26T21:47:41.195Z,9.83
2023-03-26T21:50:28.368Z,9.84
2023-03-26T21:53:15.697Z,9.82
2023-03-26T21:56:13.483Z,9.80
2023-03-26T21:59:11.321Z,9.81
2023-03-26T22:02:06.645Z,9.80
2023-03-26T22:05:13.579Z,9.78
2023-03-26T22:08:02.895Z,9.76
2023-03-26T22:10:49.730Z,9.76
2023-03-26T22:13:38.493Z,9.76
2023-03-26T22:16:25.708Z,9.77
2023-03-26T22:19:13.731Z,9.74
2023-03-26T22:22:00.914Z,9.73
2023-03-26T22:24:47.869Z,9.71
2023-03-26T22:27:34.718Z,9.70
2023-03-26T22:30:32.855Z,9.70
2023-03-26T22:33:20.052Z,9.67
2023-03-26T22:36:22.626Z,9.67
2023-03-26T22:39:10.695Z,9.65
2023-03-26T22:41:57.608Z,9.65
2023-03-26T22:44:44.442Z,9.64
2023-03-26T22:47:33.626Z,9.62
2023-03-26T22:50:20.680Z,9.62
2023-03-26T22:53:07.664Z,9.62
2023-03-26T22:55:54.556Z,9.62
2023-03-26T22:58:42.235Z,9.60
2023-03-26T23:01:29.760Z,9.59
2023-03-26T23:04:31.710Z,9.59
2023-03-26T23:07:19.264Z,9.58
2023-03-26T23:10:06.920Z,9.60
2023-03-26T23:12:53.864Z,9.58
2023-03-26T23:15:40.724Z,9.56
2023-03-26T23:18:28.875Z,9.55
2023-03-26T23:21:18.508Z,9.55
2023-03-26T23:24:05.708Z,9.55
2023-03-26T23:26:53.261Z,9.53
2023-03-26T23:29:40.149Z,9.51
2023-03-26T23:32:28.157Z,9.50
2023-03-26T23:35:15.106Z,9.49
2023-03-26T23:38:02.259Z,9.48
2023-03-26T23:40:56.995Z,9.47
2023-03-26T23:43:53.513Z,9.45
2023-03-26T23:46:42.790Z,9.44
2023-03-26T23:49:29.631Z,9.44
2023-03-26T23:52:16.696Z,9.44
2023-03-26T23:55:03.786Z,9.42
2023-03-26T23:57:50.654Z,9.42
